Jard de Ceiba Ii, Puerto Rico
Current Conditions -  °F | °C
As of 6:05 AM on Thursday 23 Oct 2014 (Local Time) from TJNR Reporting Station
Scattered Clouds Scattered Clouds  
Wind Chill: 76°   Ceiling: Unl
Heat Index: 76°   Visibility: 10mi
Dew Point: 74°   Wind: 0mph
Humidity: 94%   Direction: NA
Pressure: 29.94"   Gusts: NA
Location:  18.2667°N, 65.6476°W
Report Text: TJNR 231005Z AUTO 00000KT 10SM SCT023 SCT065 24/23 A2994 RMK AO2 RAE0956 P0000 T02440233
Loading
Personal Weather Stations






























Interactive Weather Map
Tropical Storm Tracking
New forecast layout! Learn more

10-Day Weather Forecast

Advertisements
Track Severe Weather on mobile